createdAt,value
2022-10-19T04:48:55.154Z,0.01
2022-10-19T05:09:09.623Z,0.02
2022-10-19T05:14:13.290Z,0.03
2022-10-19T05:16:55.195Z,0.05
2022-10-19T05:19:22.829Z,0.07
2022-10-19T05:21:36.511Z,0.09
2022-10-19T05:23:35.903Z,0.12
2022-10-19T05:26:23.943Z,0.19
2022-10-19T05:28:58.097Z,0.29
2022-10-19T05:31:17.962Z,0.4
2022-10-19T05:33:23.513Z,0.54
2022-10-19T05:36:17.886Z,0.96
2022-10-19T05:38:58.057Z,1.75
2022-10-19T05:41:24.019Z,2.32
2022-10-19T05:43:35.935Z,2.84
2022-10-19T05:45:33.660Z,3.17
2022-10-19T05:48:20.002Z,3.81
2022-10-19T05:50:52.131Z,4.47
2022-10-19T05:53:10.245Z,5.34
2022-10-19T05:55:13.782Z,5.92
2022-10-19T05:58:06.252Z,6.97
2022-10-19T06:00:44.723Z,7.97
2022-10-19T06:03:09.040Z,9.28
2022-10-19T06:05:19.058Z,10.57
2022-10-19T06:08:17.961Z,13.22
2022-10-19T06:11:02.692Z,15.55
2022-10-19T06:13:33.086Z,17.77
2022-10-19T06:15:49.300Z,20.89
2022-10-19T06:17:51.486Z,24.37
2022-10-19T06:20:42.355Z,27.53
2022-10-19T06:23:18.956Z,30.74
2022-10-19T06:25:41.530Z,34.38
2022-10-19T06:27:49.855Z,35.9
2022-10-19T06:30:46.842Z,39.76
2022-10-19T06:33:29.620Z,44.5
2022-10-19T06:35:58.265Z,46.82
2022-10-19T06:38:12.690Z,49.1
2022-10-19T06:40:13.204Z,59.64
2022-10-19T06:43:02.134Z,66.7
2022-10-19T06:45:36.964Z,70.88
2022-10-19T06:47:57.124Z,71.5
2022-10-19T06:50:03.688Z,80.12
2022-10-19T06:52:58.833Z,95.24
2022-10-19T06:55:39.687Z,96.04
2022-10-19T06:58:06.561Z,103.92
2022-10-19T07:00:19.197Z,111.68
2022-10-19T07:02:17.613Z,120.24
2022-10-19T07:05:06.184Z,143.56
2022-10-19T07:07:38.209Z,147.88
2022-10-19T07:09:56.780Z,142.12
2022-10-19T07:12:01.598Z,161.04
2022-10-19T07:14:54.971Z,186
2022-10-19T07:17:34.370Z,215.4
2022-10-19T07:19:58.986Z,216
2022-10-19T07:22:09.936Z,222.4
2022-10-19T07:25:09.496Z,235.2
2022-10-19T07:27:54.846Z,216.9
2022-10-19T07:30:26.272Z,185.6
2022-10-19T07:32:46.885Z,239.5
2022-10-19T07:34:46.367Z,249.8
2022-10-19T07:37:38.037Z,249.5
2022-10-19T07:40:15.211Z,244.8
2022-10-19T07:42:38.527Z,234.2
2022-10-19T07:44:47.851Z,204
2022-10-19T07:47:45.704Z,278.2
2022-10-19T07:50:29.304Z,289.2
2022-10-19T07:52:58.614Z,299.7
2022-10-19T07:55:13.964Z,310.5
2022-10-19T07:57:15.027Z,286.7
2022-10-19T08:00:04.651Z,222.6
2022-10-19T08:02:45.875Z,260.5
2022-10-19T08:05:04.109Z,372.6
2022-10-19T08:07:08.946Z,258.9
2022-10-19T08:10:04.939Z,261.4
2022-10-19T08:12:46.631Z,240.5
2022-10-19T08:15:14.124Z,284.9
2022-10-19T08:17:27.408Z,278.4
2022-10-19T08:19:26.777Z,311.5
2022-10-19T08:22:14.593Z,371.8
2022-10-19T08:24:48.260Z,327.2
2022-10-19T08:27:07.978Z,460.1
2022-10-19T08:29:13.401Z,488.8
2022-10-19T08:32:06.993Z,331.8
2022-10-19T08:34:46.954Z,484.8
2022-10-19T08:37:19.666Z,438.7
2022-10-19T08:39:24.258Z,434.5
2022-10-19T08:41:21.877Z,416.1
2022-10-19T08:44:10.023Z,410.2
2022-10-19T08:46:39.945Z,398
2022-10-19T08:48:57.625Z,394.5
2022-10-19T08:51:01.374Z,396.4
2022-10-19T08:53:53.612Z,404.1
2022-10-19T08:56:49.760Z,408
2022-10-19T08:58:55.633Z,419.2
2022-10-19T09:01:05.534Z,415.5
2022-10-19T09:04:03.915Z,421.1
2022-10-19T09:06:48.356Z,428.9
2022-10-19T09:09:18.634Z,433.7
2022-10-19T09:11:34.664Z,436.1
2022-10-19T09:13:41.530Z,439.6
2022-10-19T09:16:27.429Z,442.4
2022-10-19T09:19:03.777Z,451.2
2022-10-19T09:21:28.241Z,449.7
2022-10-19T09:23:33.735Z,444.9
2022-10-19T09:26:30.546Z,462
2022-10-19T09:29:13.093Z,483.5
2022-10-19T09:31:41.683Z,502
2022-10-19T09:33:55.967Z,513.4
2022-10-19T09:35:56.074Z,522.8
2022-10-19T09:38:44.961Z,537.1
2022-10-19T09:41:19.723Z,556.9
2022-10-19T09:43:40.192Z,572.3
2022-10-19T09:45:46.688Z,595.6
2022-10-19T09:48:41.728Z,625.7
2022-10-19T09:51:22.625Z,650.8
2022-10-19T09:53:49.212Z,632.4
2022-10-19T09:56:01.902Z,672.3
2022-10-19T09:58:00.359Z,707.5
2022-10-19T10:00:47.423Z,637.1
2022-10-19T10:03:20.509Z,633.6
2022-10-19T10:05:39.433Z,648.3
2022-10-19T10:07:44.142Z,445.7
2022-10-19T10:10:37.792Z,674.8
2022-10-19T10:13:17.150Z,648.9
2022-10-19T10:15:41.914Z,557.6
2022-10-19T10:17:53.039Z,501.2
2022-10-19T10:20:52.871Z,685.1
2022-10-19T10:23:38.139Z,730.5
2022-10-19T10:26:09.385Z,574.5
2022-10-19T10:28:26.511Z,655.3
2022-10-19T10:30:29.413Z,484.8
2022-10-19T10:33:27.179Z,511.6
2022-10-19T10:35:58.396Z,501.2
2022-10-19T10:38:21.650Z,615.5
2022-10-19T10:40:30.729Z,579
2022-10-19T10:43:28.664Z,724.4
2022-10-19T10:46:12.265Z,633.1
2022-10-19T10:48:41.702Z,483
2022-10-19T10:50:56.974Z,517.2
2022-10-19T10:52:58.346Z,511.8
2022-10-19T10:55:48.316Z,561.6
2022-10-19T10:58:24.330Z,505.1
2022-10-19T11:00:45.555Z,574.8
2022-10-19T11:02:53.115Z,578.5
2022-10-19T11:05:49.097Z,528.6
2022-10-19T11:08:30.730Z,512.3
2022-10-19T11:10:58.426Z,457.7
2022-10-19T11:13:11.962Z,488.4
2022-10-19T11:15:11.505Z,499.3
2022-10-19T11:17:59.612Z,474.2
2022-10-19T11:20:14.409Z,461.7
2022-10-19T11:22:14.870Z,453.9
2022-10-19T11:25:03.996Z,391.8
2022-10-19T11:27:39.121Z,405.6
2022-10-19T11:30:00.036Z,404.4
2022-10-19T11:32:06.842Z,380.9
2022-10-19T11:35:02.526Z,373.9
2022-10-19T11:37:45.840Z,374.7
2022-10-19T11:40:11.148Z,380.4
2022-10-19T11:42:24.201Z,387.2
2022-10-19T11:44:23.026Z,376.1
2022-10-19T11:47:10.491Z,379.3
2022-10-19T11:49:43.694Z,380.4
2022-10-19T11:52:02.903Z,383.8
2022-10-19T11:54:11.167Z,401.2
2022-10-19T11:57:04.934Z,401.7
2022-10-19T11:59:40.510Z,397.4
2022-10-19T12:02:05.875Z,394.4
2022-10-19T12:04:16.699Z,404.1
2022-10-19T12:07:16.494Z,399.8
2022-10-19T12:10:02.002Z,425.2
2022-10-19T12:12:33.660Z,425.9
2022-10-19T12:14:50.404Z,442.4
2022-10-19T12:16:53.756Z,425.2
2022-10-19T12:19:45.324Z,369.6
2022-10-19T12:22:22.957Z,361.6
2022-10-19T12:24:46.530Z,351.5
2022-10-19T12:26:55.816Z,350
2022-10-19T12:29:53.825Z,336.4
2022-10-19T12:32:37.669Z,300.9
2022-10-19T12:35:07.373Z,297.7
2022-10-19T12:37:22.827Z,296.7
2022-10-19T12:39:24.368Z,289.6
2022-10-19T12:42:14.543Z,284.4
2022-10-19T12:44:51.782Z,274.9
2022-10-19T12:47:11.993Z,301.8
2022-10-19T12:49:19.614Z,324.9
2022-10-19T12:54:57.627Z,335.8
2022-10-19T12:57:25.698Z,292
2022-10-19T12:59:39.689Z,309.7
2022-10-19T13:01:39.150Z,300.8
2022-10-19T13:04:27.490Z,274.3
2022-10-19T13:07:01.615Z,288.2
2022-10-19T13:09:21.532Z,272.4
2022-10-19T13:11:27.689Z,270.4
2022-10-19T13:14:21.977Z,282.1
2022-10-19T13:17:02.323Z,279.7
2022-10-19T13:19:28.384Z,283
2022-10-19T13:21:40.490Z,270.4
2022-10-19T13:23:38.300Z,262
2022-10-19T13:26:24.658Z,225.9
2022-10-19T13:28:57.073Z,230.9
2022-10-19T13:31:15.318Z,233.2
2022-10-19T13:33:19.137Z,215.5
2022-10-19T13:36:11.952Z,199.9
2022-10-19T13:38:50.460Z,195
2022-10-19T13:41:14.808Z,178
2022-10-19T13:43:24.685Z,185.2
2022-10-19T13:46:23.570Z,205
2022-10-19T13:49:08.321Z,253.3
2022-10-19T13:51:38.609Z,214
2022-10-19T13:53:55.124Z,197.3
2022-10-19T13:55:57.600Z,192.3
2022-10-19T13:58:48.302Z,177
2022-10-19T14:01:25.275Z,182.5
2022-10-19T14:03:47.874Z,190.8
2022-10-19T14:05:56.221Z,184.9
2022-10-19T14:08:53.494Z,205.7
2022-10-19T14:11:36.516Z,171.6
2022-10-19T14:14:05.306Z,178.8
2022-10-19T14:16:19.953Z,173.2
2022-10-19T14:18:20.551Z,169.1
2022-10-19T14:21:09.726Z,148.2
2022-10-19T14:23:44.642Z,132.48
2022-10-19T14:26:05.617Z,141.24
2022-10-19T14:28:12.275Z,137.72
2022-10-19T14:31:07.525Z,118.44
2022-10-19T14:33:48.813Z,114.84
2022-10-19T14:36:15.510Z,114.6
2022-10-19T14:38:28.252Z,120.08
2022-10-19T14:40:27.835Z,110.72
2022-10-19T14:43:14.412Z,126
2022-10-19T14:45:47.607Z,136.48
2022-10-19T14:48:06.539Z,129.72
2022-10-19T14:50:11.465Z,115.96
2022-10-19T14:53:05.147Z,144.2
2022-10-19T14:55:44.592Z,169
2022-10-19T14:58:10.020Z,169.8
2022-10-19T15:00:21.299Z,160.24
2022-10-19T15:03:20.901Z,152.96
2022-10-19T15:06:06.711Z,159.6
2022-10-19T15:08:38.286Z,156.96
2022-10-19T15:10:55.457Z,148.32
2022-10-19T15:12:58.736Z,133.92
2022-10-19T15:15:50.646Z,139.2
2022-10-19T15:18:48.034Z,135.56
2022-10-19T15:21:08.132Z,129.12
2022-10-19T15:23:00.817Z,134
2022-10-19T15:25:58.749Z,126.84
2022-10-19T15:28:42.111Z,119.6
2022-10-19T15:31:11.821Z,113.88
2022-10-19T15:33:27.343Z,102.88
2022-10-19T15:35:28.651Z,93.4
2022-10-19T15:38:18.719Z,91.32
2022-10-19T15:40:54.647Z,94.96
2022-10-19T15:43:16.264Z,99.64
2022-10-19T15:45:24.140Z,96.32
2022-10-19T15:48:20.210Z,93.32
2022-10-19T15:51:02.208Z,90.24
2022-10-19T15:53:29.900Z,81.26
2022-10-19T15:55:43.663Z,77.7
2022-10-19T15:57:43.240Z,66.48
2022-10-19T16:00:31.402Z,54
2022-10-19T16:03:05.691Z,46.78
2022-10-19T16:05:25.656Z,41.2
2022-10-19T16:07:31.300Z,36.87
2022-10-19T16:10:25.911Z,30.64
2022-10-19T16:13:06.253Z,24.82
2022-10-19T16:15:32.188Z,20.36
2022-10-19T16:17:44.243Z,17.35
2022-10-19T16:19:41.640Z,14.47
2022-10-19T16:22:28.002Z,10.88
2022-10-19T16:25:00.137Z,8.6
2022-10-19T16:27:18.315Z,6.85
2022-10-19T16:29:24.334Z,5.76
2022-10-19T16:32:14.902Z,4.33
2022-10-19T16:34:53.511Z,3.25
2022-10-19T16:37:17.874Z,2.41
2022-10-19T16:39:27.999Z,1.91
2022-10-19T16:42:28.249Z,1.17
2022-10-19T16:45:11.693Z,0.81
2022-10-19T16:47:42.082Z,0.55
2022-10-19T16:49:58.363Z,0.35
2022-10-19T16:52:00.638Z,0.25
2022-10-19T16:54:51.661Z,0.14
2022-10-19T16:57:28.314Z,0.09
2022-10-19T16:59:50.952Z,0.05
2022-10-19T17:01:59.301Z,0.04
2022-10-19T17:04:56.337Z,0.03
2022-10-19T17:07:39.280Z,0.02
2022-10-19T17:10:08.037Z,0.01
2022-10-19T17:24:17.119Z,0.02
2022-10-19T17:27:09.527Z,0.01
2022-10-19T17:29:50.674Z,0.02
2022-10-19T17:34:30.525Z,0.01
2022-10-19T18:02:08.516Z,0
2022-10-19T18:04:39.571Z,0.01
2022-10-19T18:16:52.752Z,0
2022-10-19T18:19:02.215Z,0.01
2022-10-19T18:59:05.321Z,0
2022-10-19T19:03:30.829Z,0.01
2022-10-19T19:06:25.124Z,0
2022-10-19T19:15:40.820Z,0.01
2022-10-19T19:18:27.234Z,0
2022-10-19T19:35:26.229Z,0.01
2022-10-19T19:38:24.953Z,0
2022-10-19T19:45:56.379Z,0.01
2022-10-19T19:55:47.548Z,0
